Date,TemperatureHighF,TemperatureAvgF,TemperatureLowF,DewpointHighF,DewpointAvgF,DewpointLowF,HumidityHigh,HumidityAvg,HumidityLow,PressureMaxIn,PressureMinIn,WindSpeedMaxMPH,WindSpeedAvgMPH,GustSpeedMaxMPH,PrecipitationSumIn
2013-2-14,43,32,23,32,25,20,94,77,49,30.06,29.83,3,0,8,0.00
2013-2-15,47,36,29,32,28,26,94,75,48,30.08,29.91,1,0,7,0.00
2013-2-16,29,23,13,28,18,8,95,82,65,29.96,29.77,4,1,18,0.01
2013-2-17,26,18,10,11,6,3,79,62,39,30.32,29.95,6,2,18,0.00
2013-2-18,44,31,21,24,19,11,71,61,44,30.40,30.17,3,0,12,0.00
2013-2-19,39,32,25,35,25,12,96,74,52,30.17,29.89,4,2,21,0.27
2013-2-20,41,34,21,12,6,-4,62,32,18,30.14,29.95,5,1,13,0.02
2013-2-21,50,41,32,32,11,-14,100,36,10,30.15,30.03,2,0,8,0.36
2013-2-22,47,36,27,46,35,26,97,96,95,30.16,30.06,3,0,10,0.54
2013-2-23,50,45,38,49,44,37,97,97,97,30.08,29.74,2,0,7,0.34
2013-2-24,50,39,31,36,27,9,96,65,31,30.00,29.76,4,0,5,0.00
2013-2-25,39,35,30,30,26,16,95,69,42,30.05,29.93,2,0,6,0.09
2013-2-26,38,33,30,37,32,29,97,96,95,29.93,29.55,3,0,14,2.64
2013-2-27,49,35,27,36,28,25,95,78,44,29.80,29.61,5,1,16,0.02
2013-2-28,31,26,21,27,21,19,91,84,78,29.89,29.65,8,2,21,0.00
2013-3-1,35,26,21,26,22,19,95,86,68,29.95,29.86,7,1,19,0.00
2013-3-2,33,24,17,25,21,14,94,85,65,29.90,29.84,8,1,20,0.06
2013-3-3,34,20,13,18,13,9,90,74,44,29.99,29.88,10,2,23,0.00
2013-3-4,48,31,16,24,15,6,74,54,23,30.18,29.99,6,2,19,0.00
2013-3-5,44,38,24,44,35,21,97,89,63,30.10,29.59,7,1,26,0.79
2013-3-6,27,22,16,23,19,14,95,89,82,30.15,29.56,22,4,38,0.00
2013-3-7,51,34,21,32,22,13,94,65,27,30.27,30.14,4,0,12,0.01
2013-3-8,54,39,30,29,17,6,68,41,25,30.25,30.17,3,0,11,0.00
2013-3-9,53,42,36,32,25,5,68,51,26,30.25,30.19,3,0,8,0.00
2013-3-10,53,44,37,34,30,26,73,59,42,30.22,30.12,4,0,11,0.00
2013-3-11,46,43,41,46,42,34,98,95,70,30.12,29.79,6,2,24,1.64
2013-3-12,53,43,32,46,34,20,98,74,32,29.93,29.71,5,2,19,0.28
2013-3-13,38,30,20,25,20,14,79,67,45,30.10,29.92,8,2,27,0.00
2013-3-14,44,28,16,20,12,6,86,55,27,30.30,30.09,6,1,19,0.00
2013-3-15,60,44,28,40,31,12,88,63,37,30.20,29.94,14,2,21,0.00
2013-3-16,67,54,46,45,41,38,73,62,41,29.94,29.75,8,2,16,0.00
2013-3-17,62,53,48,47,43,40,87,71,46,29.89,29.79,8,1,12,0.00
2013-3-18,48,42,38,44,41,37,100,96,87,29.90,29.79,8,1,22,0.44
2013-3-19,51,41,32,41,26,12,96,61,29,30.00,29.80,9,2,18,0.00
2013-3-20,48,34,26,25,11,2,91,39,22,30.05,29.81,4,1,15,0.00
2013-3-21,33,23,14,24,9,1,92,55,36,29.95,29.66,11,3,26,0.01
2013-3-22,41,29,19,28,16,6,80,59,29,30.06,29.95,4,0,11,0.00
2013-3-23,53,41,33,47,39,29,100,91,78,30.04,29.82,7,0,8,0.09
2013-3-24,40,37,32,39,36,31,97,96,94,29.86,29.46,4,0,8,1.10
2013-3-25,32,24,19,32,21,17,97,88,75,29.90,29.47,14,2,22,0.01
2013-3-26,29,22,18,22,18,16,93,85,70,30.22,29.88,8,3,25,0.00
2013-3-27,43,28,18,20,18,14,89,67,33,30.30,30.18,11,2,20,0.01
2013-3-28,46,33,22,19,16,10,78,53,23,30.30,30.20,8,1,21,0.00
2013-3-29,48,36,29,34,24,9,96,64,32,30.31,30.21,5,0,12,0.04
2013-3-30,52,43,35,41,37,33,96,81,58,30.21,30.03,4,0,12,0.09
2013-3-31,56,47,42,48,45,40,97,91,72,30.03,29.80,5,1,12,0.47
2013-4-1,57,46,38,45,38,31,96,74,47,29.92,29.78,9,1,15,0.00
2013-4-2,55,42,30,31,21,6,82,49,19,30.08,29.89,5,1,19,0.00
2013-4-3,51,41,33,28,25,22,68,53,36,30.20,30.04,2,0,9,0.00
2013-4-4,39,32,27,32,28,25,96,87,57,30.19,29.94,4,1,9,0.02
2013-4-5,57,42,32,42,33,23,97,75,28,30.06,29.89,8,1,12,0.57
2013-4-6,58,47,36,35,30,22,69,54,36,30.17,30.05,5,1,12,0.00
2013-4-7,57,48,40,45,38,30,76,67,55,30.15,30.08,8,1,13,0.00
2013-4-8,63,54,48,51,47,42,91,77,59,30.09,30.03,6,1,18,0.00
2013-4-9,72,60,52,56,51,48,89,75,55,30.13,30.03,7,1,15,0.00
2013-4-10,74,62,54,58,53,50,88,72,52,30.05,29.86,10,1,11,0.00
2013-4-11,64,58,53,58,53,50,97,85,64,29.87,29.58,7,2,22,3.66
2013-4-12,66,56,43,53,44,30,97,69,32,29.75,29.51,11,2,25,1.03
2013-4-13,66,51,40,34,31,27,78,51,26,30.00,29.71,10,3,26,0.00
2013-4-14,58,49,44,45,38,30,96,66,45,30.02,29.90,5,0,10,0.39
2013-4-15,57,50,44,54,49,43,97,96,88,30.15,29.89,5,0,8,0.27
2013-4-16,64,56,51,59,54,51,100,91,79,30.23,30.13,6,0,9,0.03
2013-4-17,75,58,54,63,55,51,96,89,65,30.17,30.04,5,0,10,1.34
2013-4-18,64,57,54,56,54,51,97,90,74,30.05,29.87,4,1,14,0.00
2013-4-19,57,49,34,57,41,-100,98,88,66,29.87,29.64,10,-8,25,2.11
2013-4-20,57,40,28,33,27,20,89,61,29,30.25,29.75,8,3,27,0.00
2013-4-21,57,44,37,36,30,24,81,59,41,30.36,30.25,4,0,11,0.00
2013-4-22,59,44,34,41,35,30,94,74,41,30.33,30.17,2,0,8,0.00
2013-4-23,63,49,35,44,36,26,81,62,45,30.23,30.08,6,0,10,0.00
2013-4-24,61,52,47,52,48,43,96,85,68,30.10,29.98,8,1,12,0.04
2013-4-25,67,33,37,50,-14,-100,96,37,16,30.23,29.98,7,-38,11,0.00
2013-4-26,60,48,40,37,27,-100,61,47,38,30.34,30.23,4,-5,10,0.00
2013-4-27,50,33,42,46,4,-100,96,66,65,30.31,30.18,2,-11,10,0.91
2013-4-28,44,4,43,43,-87,-100,97,9,95,30.20,30.00,3,-103,7,0.00
2013-4-29,46,1,46,45,-95,-100,97,3,97,30.03,29.83,0,-94,0,0.00
2013-4-30,66,32,53,56,-16,-100,97,46,63,30.04,29.85,2,0,9,0.00
2013-5-1,59,45,47,52,32,-100,97,83,70,30.18,30.04,4,-15,9,0.00
2013-5-2,48,11,47,47,-65,-100,97,25,96,30.17,30.14,2,-124,7,0.00
2013-5-3,47,34,44,47,7,-100,98,74,97,30.15,30.00,5,-19,12,0.20
2013-5-4,45,42,38,45,41,38,98,98,98,30.00,29.90,5,1,12,1.13
2013-5-5,46,43,40,45,42,40,98,98,98,29.94,29.76,7,1,15,3.51
2013-5-6,52,43,38,46,42,37,98,95,73,29.86,29.72,4,0,10,0.32
2013-5-7,56,46,37,48,41,34,96,84,48,29.94,29.83,2,0,9,0.05
2013-5-8,58,51,44,50,47,42,97,88,74,30.02,29.87,5,1,13,0.00
2013-5-9,72,58,47,55,49,44,96,76,38,30.08,29.98,11,1,12,0.00
2013-5-10,68,59,53,55,52,48,93,78,60,30.04,29.87,4,0,12,0.00
2013-5-11,69,56,50,58,52,49,95,86,59,29.89,29.77,10,1,12,0.02
2013-5-12,60,49,39,50,36,23,95,64,26,29.99,29.76,7,2,16,0.00
2013-5-13,59,45,34,28,25,-100,74,50,23,30.16,29.96,12,1,18,0.00
2013-5-14,68,53,37,49,38,26,76,58,34,30.21,30.06,5,1,10,0.00
2013-5-15,84,66,54,58,50,44,84,60,29,30.06,29.92,7,2,19,0.00
2013-5-16,77,63,56,59,52,47,83,68,43,29.96,29.86,4,1,13,0.00
2013-5-17,73,62,56,58,54,48,92,77,55,30.01,29.93,4,0,9,0.00
2013-5-18,59,57,55,57,56,54,97,96,91,30.02,29.94,4,0,13,1.55
2013-5-19,63,59,55,62,58,54,98,96,85,30.04,29.94,5,0,9,0.18
2013-5-20,74,62,53,67,58,52,97,89,61,30.05,29.97,5,0,10,0.01
2013-5-21,76,64,59,66,59,49,97,84,57,29.97,29.87,4,0,11,0.01
2013-5-22,70,62,55,66,60,54,97,93,84,29.92,29.79,3,0,10,0.78
2013-5-23,73,61,53,59,54,48,97,81,47,29.86,29.78,6,1,15,0.15
2013-5-24,66,54,45,48,39,25,93,61,26,30.14,29.78,9,2,18,0.00
2013-5-25,73,55,40,49,35,21,81,49,25,30.25,30.12,6,0,12,0.00
2013-5-26,73,58,48,52,41,22,81,55,31,30.18,30.11,5,0,10,0.01
2013-5-27,72,61,53,58,52,44,86,72,55,30.16,30.07,5,0,9,0.00
2013-5-28,72,63,56,61,56,53,92,80,65,30.13,30.06,4,0,10,0.00
2013-5-29,75,64,54,63,57,53,96,81,58,30.14,30.07,4,0,8,0.00
2013-5-30,74,63,57,61,57,55,96,83,53,30.17,30.09,1,0,26,0.00
2013-5-31,72,63,57,62,58,56,96,86,68,30.13,30.04,4,0,9,0.00
2013-6-1,69,63,58,63,60,56,97,90,77,30.04,29.95,5,0,10,0.08
2013-6-2,64,61,58,63,60,57,97,97,95,29.98,29.83,2,0,10,1.44
2013-6-3,74,63,57,61,58,54,97,85,54,29.89,29.81,3,0,11,0.01
2013-6-4,74,63,56,64,58,51,96,84,61,30.00,29.88,2,0,6,0.00
2013-6-5,74,63,56,66,60,56,97,93,71,29.98,29.86,2,0,6,0.21
2013-6-6,65,60,56,64,59,55,97,96,92,29.89,29.72,4,0,7,0.63
2013-6-7,75,62,58,65,60,57,98,91,59,29.75,29.60,6,0,9,0.26
2013-6-8,72,61,54,64,59,53,97,92,63,30.04,29.75,2,0,8,0.02
2013-6-9,70,62,59,66,61,58,97,95,82,30.07,29.94,3,0,9,2.08
2013-6-10,69,61,56,62,59,55,98,91,67,29.95,29.86,3,0,13,1.89
2013-6-11,77,65,58,62,59,55,97,81,51,29.96,29.87,5,1,11,0.18
2013-6-12,83,70,61,69,63,58,92,80,54,29.97,29.85,6,1,12,0.00
2013-6-13,82,66,58,66,61,57,97,84,53,29.86,29.64,6,1,15,0.32
2013-6-14,74,62,51,58,52,47,96,72,41,29.99,29.72,5,1,11,0.00
2013-6-15,75,62,53,63,54,46,88,77,60,30.07,29.98,4,0,9,0.00
2013-6-16,76,65,57,65,59,53,95,82,66,30.07,29.97,2,0,6,0.00
2013-6-17,73,64,59,68,59,-100,97,91,75,29.97,29.87,2,-3,8,0.71
2013-6-18,70,63,59,66,61,58,97,94,82,29.87,29.74,2,0,9,0.02
2013-6-19,71,62,56,64,59,55,97,89,76,30.05,29.83,0,0,5,0.00
2013-6-20,70,62,57,64,60,56,97,92,77,30.16,30.03,2,0,7,0.00
2013-6-21,75,64,58,65,59,56,97,87,62,30.19,30.10,1,0,6,0.00
2013-6-22,78,64,56,64,58,55,97,83,55,30.16,30.05,4,0,6,0.00
2013-6-23,74,64,58,66,61,56,97,89,75,30.13,30.05,2,0,6,0.46
2013-6-24,72,65,61,68,63,60,97,94,80,30.14,30.03,3,0,8,0.25
2013-6-25,76,65,60,68,62,58,97,92,73,30.09,29.97,4,0,10,0.08
2013-6-26,80,66,61,68,63,60,97,90,63,29.98,29.85,4,0,9,0.03
2013-6-27,77,67,60,69,64,59,97,90,71,29.89,29.70,6,0,9,0.23
2013-6-28,80,68,61,67,62,59,97,83,55,29.75,29.57,7,1,15,0.01
2013-6-29,80,66,58,63,58,54,95,76,42,29.64,29.54,2,0,10,0.00
2013-6-30,72,63,57,63,58,52,97,84,61,29.74,29.61,1,0,7,0.87
2013-7-1,69,61,58,65,60,57,97,95,84,29.89,29.70,5,0,8,3.67
2013-7-2,68,62,58,65,61,57,97,96,88,30.05,29.88,5,0,10,1.39
2013-7-3,64,61,56,63,60,55,98,97,97,30.15,30.01,2,0,8,3.34
2013-7-4,64,61,59,63,60,58,98,98,97,30.15,30.08,8,0,12,3.22
2013-7-5,71,62,59,66,61,58,98,96,82,30.18,30.09,5,0,12,0.76
2013-7-6,67,63,59,66,62,58,98,97,95,30.13,30.04,5,0,9,1.65
2013-7-7,68,64,61,66,63,60,98,97,87,30.10,30.03,2,0,10,0.45
2013-7-8,73,66,60,70,64,59,97,93,79,30.14,30.05,1,0,6,0.21
2013-7-9,76,68,62,70,65,61,97,93,79,30.11,30.00,1,0,6,0.03
2013-7-10,74,66,63,71,65,62,97,96,84,30.04,29.88,1,0,5,0.84
2013-7-11,73,65,62,69,64,61,98,95,82,29.90,29.81,1,0,7,0.04
2013-7-12,69,63,57,66,61,56,97,94,76,29.92,29.81,1,0,5,0.02
2013-7-13,63,60,56,63,59,55,98,97,97,30.06,29.91,0,0,5,0.70
2013-7-14,64,62,61,63,62,60,98,98,98,30.21,30.03,4,0,10,1.03
2013-7-15,73,65,61,68,63,60,98,95,79,30.28,30.19,1,0,7,0.02
2013-7-16,80,69,62,71,66,61,98,89,62,30.26,30.17,4,0,5,0.00
2013-7-17,83,69,62,71,65,60,97,88,60,30.20,30.07,2,0,5,0.12
2013-7-18,78,68,61,70,65,60,97,88,73,30.12,30.01,2,0,7,0.00
2013-7-19,78,68,61,71,65,60,97,90,71,30.06,29.93,1,0,7,0.00
2013-7-20,73,66,63,68,64,62,97,94,75,29.97,29.87,1,0,9,0.67
2013-7-21,73,65,62,69,64,61,97,94,77,29.96,29.86,2,0,9,1.16
2013-7-22,78,66,61,69,63,60,97,91,66,29.93,29.78,2,0,8,0.16
2013-7-23,77,65,59,66,62,58,97,89,65,29.85,29.74,6,1,13,0.01
2013-7-24,76,65,59,69,62,58,97,91,69,29.80,29.69,5,0,10,0.07
2013-7-25,76,64,58,68,61,56,97,90,68,29.97,29.79,1,0,6,0.27
2013-7-26,71,63,57,66,61,56,97,94,79,30.02,29.95,2,0,11,0.02
2013-7-27,71,64,61,65,62,60,97,92,76,29.97,29.82,1,0,10,0.16
2013-7-28,78,65,58,66,60,56,97,84,49,29.96,29.83,1,0,7,0.00
2013-7-29,79,65,58,66,56,47,94,76,33,30.10,29.94,2,0,6,0.00
2013-7-30,79,66,58,68,62,56,96,88,69,30.13,30.07,4,0,6,0.00
2013-7-31,68,63,62,66,62,60,97,96,89,30.10,29.89,2,0,7,0.14
2013-8-1,79,67,61,68,63,60,97,89,61,29.93,29.83,2,0,9,0.01
2013-8-2,75,66,59,67,62,57,96,89,75,29.97,29.86,1,0,5,0.00
2013-8-3,79,67,62,65,61,56,96,81,55,29.97,29.89,2,0,8,0.00
2013-8-4,79,67,60,66,61,53,97,82,57,29.97,29.88,9,1,15,0.00
2013-8-5,71,65,59,66,61,52,96,87,75,29.98,29.91,2,0,7,0.00
2013-8-6,76,66,61,69,64,60,97,93,78,29.96,29.87,1,0,7,1.28
2013-8-7,66,63,62,65,62,61,97,97,97,29.99,29.93,2,0,7,1.96
2013-8-8,70,65,63,68,64,62,97,97,90,30.00,29.95,1,0,7,0.16
2013-8-9,73,67,64,70,65,63,98,95,83,30.03,29.96,1,0,7,0.09
2013-8-10,77,68,64,71,66,63,97,93,75,30.05,29.99,1,0,7,0.43
2013-8-11,76,67,64,69,65,62,97,91,74,30.07,30.00,4,0,10,0.04
2013-8-12,81,68,63,70,64,62,97,89,61,30.03,29.90,3,0,8,0.01
2013-8-13,76,66,61,68,63,59,97,91,70,29.90,29.77,5,0,9,0.15
2013-8-14,70,61,57,65,59,55,97,92,76,29.99,29.81,2,0,8,0.00
2013-8-15,60,56,52,56,54,51,97,94,85,30.08,29.97,1,0,5,0.00
2013-8-16,65,56,51,59,53,50,97,91,74,30.10,30.03,6,0,6,0.00
2013-8-17,59,56,52,57,54,48,97,94,83,30.13,30.06,1,0,6,0.23
2013-8-18,66,60,57,64,59,56,97,96,91,30.17,30.08,3,0,6,0.19
2013-8-19,64,61,58,63,60,57,98,97,97,30.14,30.03,1,0,4,1.75
2013-8-20,70,63,58,66,61,57,98,96,85,30.14,30.05,1,0,5,0.00
2013-8-21,66,62,60,64,61,59,98,97,86,30.18,30.09,1,0,10,0.44
2013-8-22,77,66,60,69,63,60,98,91,66,30.12,29.99,1,0,7,0.00
2013-8-23,77,65,59,68,62,57,97,90,71,30.02,29.92,1,0,6,0.04
2013-8-24,73,63,56,65,59,54,97,90,69,30.23,30.00,2,0,5,0.00
2013-8-25,70,59,53,62,55,50,96,87,72,30.32,30.22,1,0,5,0.00
2013-8-26,75,61,52,64,57,51,97,87,59,30.28,30.10,2,0,6,0.00
2013-8-27,79,64,55,66,60,53,97,85,57,30.12,29.98,4,0,8,0.00
2013-8-28,79,67,60,70,63,58,96,87,63,30.01,29.89,2,0,9,0.00
2013-8-29,80,69,62,71,65,61,96,86,66,29.91,29.85,4,1,11,0.00
2013-8-30,65,64,64,64,63,62,97,96,92,29.94,29.89,0,0,5,0.00
2013-8-31,80,67,62,70,64,61,97,91,61,29.91,29.82,1,0,6,0.02
2013-9-1,81,69,63,69,65,61,97,87,62,29.85,29.74,1,0,6,0.00
2013-9-2,77,67,61,69,63,59,97,88,68,29.85,29.75,2,0,9,0.00
2013-9-3,78,65,56,66,61,55,97,87,57,29.93,29.78,3,0,11,0.17
2013-9-4,74,65,58,67,61,56,96,89,71,30.05,29.91,2,0,5,0.00
2013-9-5,78,66,59,68,62,57,97,88,67,30.06,30.00,1,0,6,0.00
2013-9-6,74,63,58,63,57,45,95,81,61,30.10,30.01,2,0,8,0.00
2013-9-7,73,62,56,66,60,55,97,91,77,30.05,29.96,4,0,6,0.00
2013-9-8,72,64,59,64,60,58,97,89,69,29.97,29.90,1,0,8,0.00
2013-9-9,76,65,59,67,62,58,97,89,68,30.09,29.96,1,0,5,0.00
2013-9-10,79,66,59,67,62,58,97,88,63,30.17,30.08,2,0,5,0.00
2013-9-11,81,66,59,68,62,57,97,87,62,30.16,30.04,4,0,6,0.00
2013-9-12,79,65,61,67,62,56,97,89,66,30.04,29.81,6,1,13,0.00
2013-9-13,72,61,51,58,54,48,96,80,53,29.81,29.73,7,1,11,0.00
2013-9-14,68,56,48,55,50,46,94,82,56,30.07,29.82,1,0,5,0.00
2013-9-15,67,58,50,60,55,49,96,91,72,30.15,30.06,1,0,7,0.00
2013-9-16,78,64,57,65,59,55,97,85,49,30.12,30.02,1,0,7,0.00
2013-9-17,61,57,53,57,54,51,96,90,76,30.19,30.07,3,0,6,0.00
2013-9-18,66,56,50,59,53,49,95,92,78,30.21,30.12,1,0,5,0.00
2013-9-19,72,60,53,64,58,52,97,92,68,30.14,30.04,1,0,6,0.10
2013-9-20,70,62,57,64,60,57,97,93,71,30.05,29.88,1,0,9,0.01
2013-9-21,60,58,53,59,57,52,97,97,94,29.89,29.61,6,1,14,1.32
2013-9-22,64,56,48,60,54,47,97,92,76,29.86,29.68,1,0,6,0.01
2013-9-23,66,56,49,59,53,48,97,91,74,30.00,29.86,1,0,5,0.00
2013-9-24,60,55,50,58,54,49,97,95,90,30.01,29.89,1,0,4,0.01
2013-9-25,56,55,52,56,54,51,97,97,97,29.90,29.80,0,0,4,1.14
2013-9-26,65,56,52,60,54,51,98,96,83,29.99,29.83,1,0,4,0.00
2013-9-27,68,56,49,60,52,47,97,88,66,30.12,29.99,4,0,5,0.00
2013-9-28,61,53,49,56,51,48,97,92,81,30.17,30.09,0,0,4,0.00
2013-9-29,62,52,44,55,49,43,97,92,74,30.12,30.01,1,0,5,0.00
2013-9-30,62,54,48,56,52,47,97,92,74,30.05,29.98,1,0,7,0.00
2013-10-1,68,56,50,59,53,48,97,90,61,30.12,30.03,0,0,5,0.00
2013-10-2,70,59,52,60,55,51,97,89,65,30.13,30.06,1,0,5,0.00
2013-10-3,66,59,54,60,56,52,96,90,76,30.09,30.04,1,0,6,0.00
2013-10-4,74,61,55,62,57,54,97,88,60,30.13,30.05,2,0,6,0.00
2013-10-5,75,62,56,63,58,55,96,87,62,30.09,30.00,2,0,6,0.00
2013-10-6,67,60,57,61,58,56,96,92,77,30.00,29.82,2,0,10,0.36
2013-10-7,69,58,49,62,56,43,97,93,77,29.91,29.73,3,0,13,1.14
2013-10-8,65,53,47,53,47,41,96,80,63,30.14,29.90,1,0,7,0.00
2013-10-9,65,53,44,53,47,38,95,82,61,30.16,30.09,2,0,5,0.00
2013-10-10,69,55,46,55,49,45,97,84,54,30.09,29.98,6,0,9,0.00
2013-10-11,71,56,48,55,49,46,95,79,45,29.99,29.93,5,0,7,0.00
2013-10-12,70,57,50,58,52,48,95,86,60,30.06,29.94,1,0,7,0.00
2013-10-13,63,57,53,58,54,51,97,92,79,30.15,30.05,1,0,8,0.02
2013-10-14,58,55,53,56,54,52,97,96,93,30.16,30.08,4,0,6,0.05
2013-10-15,61,53,49,56,52,48,97,95,81,30.12,30.01,2,0,5,0.00
2013-10-16,59,52,47,56,50,-100,96,93,82,30.04,29.93,1,0,5,0.00
2013-10-17,59,55,51,58,54,50,97,96,89,29.94,29.80,1,0,8,0.20
2013-10-18,59,51,46,54,48,36,97,88,65,29.95,29.83,1,0,7,0.00
2013-10-19,56,50,43,47,40,30,94,71,39,29.92,29.82,5,0,11,0.01
2013-10-20,61,46,35,46,38,26,96,77,42,30.07,29.88,4,0,10,0.00
2013-10-21,56,46,40,50,44,39,96,92,79,30.10,30.00,3,0,8,0.00
2013-10-22,62,51,45,48,43,37,94,76,56,30.01,29.75,1,0,9,0.00
2013-10-23,47,40,29,41,33,24,91,77,56,29.97,29.65,11,1,18,0.00
2013-10-24,50,37,29,35,29,23,85,73,53,30.15,29.98,2,0,10,0.00
2013-10-25,48,33,24,29,24,18,91,71,32,30.34,30.15,5,0,14,0.00
2013-10-26,52,37,27,41,28,23,85,70,38,30.33,30.09,4,0,19,0.00
2013-10-27,56,47,40,47,43,38,95,86,70,30.11,30.02,6,1,16,0.00
2013-10-28,57,48,45,50,46,43,96,92,67,30.22,30.07,2,0,9,0.01
2013-10-29,61,50,44,50,46,43,96,87,55,30.31,30.19,1,0,7,0.00
2013-10-30,64,55,50,56,51,47,96,88,67,30.25,30.13,7,0,8,0.00
2013-10-31,55,53,51,54,51,48,97,93,85,30.13,29.81,5,1,24,0.00
2013-11-1,67,56,46,55,46,29,97,76,28,29.82,29.62,11,1,28,0.00
2013-11-2,55,44,36,42,37,32,90,76,49,29.97,29.66,4,1,12,0.00
2013-11-3,52,40,32,36,32,28,92,76,49,30.34,29.93,5,1,14,0.00
2013-11-4,47,37,32,34,30,28,89,77,54,30.48,30.33,4,0,6,0.00
2013-11-5,54,41,30,44,29,21,95,67,28,30.50,30.40,1,0,5,0.00
2013-11-6,53,48,46,50,47,44,96,95,88,30.40,30.10,4,0,8,0.52
2013-11-7,56,46,32,51,40,22,97,79,44,30.10,29.94,5,1,13,0.08
2013-11-8,51,37,29,29,22,14,75,57,27,30.29,30.03,4,1,13,0.00
2013-11-9,49,40,31,32,24,14,71,54,30,30.32,30.22,5,0,8,0.00
2013-11-10,58,47,39,31,24,10,70,42,24,30.23,30.16,5,1,18,0.00
2013-11-11,58,46,38,33,28,19,69,51,37,30.25,30.11,2,0,7,0.00
2013-11-12,48,36,16,35,23,9,78,61,46,30.31,30.01,15,2,22,0.00
2013-11-13,43,27,14,14,8,-3,80,46,27,30.55,30.31,2,0,11,0.00
2013-11-14,54,38,29,25,14,2,54,37,23,30.50,30.30,2,0,8,0.00
2013-11-15,46,43,37,45,37,1,97,86,21,30.31,30.16,7,1,14,0.49
2013-11-16,52,48,46,52,47,45,97,97,96,30.21,30.13,4,0,8,0.09
2013-11-17,57,51,48,56,51,47,98,97,97,30.16,29.86,6,1,14,0.68
2013-11-18,57,49,36,56,40,28,98,74,39,29.91,29.81,8,2,21,0.02
2013-11-19,47,37,30,29,24,16,77,61,39,30.19,29.88,5,0,21,0.00
2013-11-20,44,33,26,29,25,22,88,73,52,30.42,30.19,2,0,10,0.00
2013-11-21,49,43,33,48,42,28,97,95,83,30.46,30.36,3,0,8,0.51
2013-11-22,57,52,48,57,51,47,98,96,92,30.35,30.06,4,0,9,0.16
2013-11-23,51,42,25,50,36,8,97,80,35,30.06,30.00,7,2,25,0.01
2013-11-24,36,25,19,18,8,-3,82,51,19,30.47,30.05,11,1,16,0.00
2013-11-25,38,29,18,33,13,-9,96,58,17,30.49,30.26,6,0,12,0.03
2013-11-26,45,40,34,44,39,33,97,97,96,30.26,29.59,3,0,12,4.30
2013-11-27,41,25,14,40,23,11,97,92,83,30.14,29.50,11,3,25,0.08
2013-11-28,46,31,14,28,12,6,89,49,24,30.46,30.14,2,0,7,0.06
2013-11-29,48,38,30,27,18,2,67,47,26,30.51,30.42,1,0,7,0.01
2013-11-30,45,33,25,36,23,13,86,66,39,30.52,30.34,9,0,11,0.00
2013-12-1,52,41,34,37,33,24,92,74,42,30.34,29.96,4,0,9,0.00
2013-12-2,46,40,34,41,36,28,95,86,76,29.96,29.79,4,0,5,0.00
2013-12-3,46,43,41,45,42,40,97,96,95,29.92,29.81,2,0,7,0.07
2013-12-4,52,49,45,51,49,44,98,97,97,30.04,29.90,3,0,12,0.03
2013-12-5,59,55,52,58,54,51,97,97,96,30.05,29.93,10,0,13,1.67
2013-12-6,58,57,53,58,56,52,97,97,97,29.97,29.85,10,1,20,1.36
2013-12-7,54,47,38,53,46,37,97,96,90,30.23,29.90,5,0,10,0.04
2013-12-8,49,39,32,49,38,32,98,97,96,30.24,30.15,3,0,9,0.53
2013-12-9,53,48,43,52,46,37,98,94,68,30.15,29.94,4,1,19,1.13
2013-12-10,50,39,26,49,32,8,97,79,45,30.21,29.80,7,2,24,0.32
2013-12-11,44,33,26,24,10,0,54,37,24,30.41,30.22,2,0,10,0.00
2013-12-12,37,29,23,17,8,-2,70,44,21,30.38,30.21,5,0,11,0.00
2013-12-13,46,35,26,24,15,7,68,44,31,30.36,30.22,2,0,8,0.00
2013-12-14,45,39,32,44,36,23,97,90,66,30.22,29.75,3,0,12,1.22
2013-12-15,41,32,28,40,29,22,97,86,70,30.07,29.68,10,2,25,0.00
2013-12-16,44,35,28,26,24,22,81,65,47,30.19,30.07,4,1,14,0.00
2013-12-17,50,39,29,31,27,20,73,63,44,30.15,29.96,15,1,24,0.00
2013-12-18,44,33,23,21,10,0,72,42,17,30.32,29.96,6,1,21,0.00
2013-12-19,54,46,40,27,22,20,47,40,31,30.32,30.15,4,0,12,0.00
2013-12-20,54,45,39,46,32,17,95,63,33,30.19,30.11,4,1,12,0.00
2013-12-21,57,53,48,56,52,47,98,97,95,30.11,29.89,10,3,26,1.03
2013-12-22,57,53,50,57,52,49,98,98,97,29.96,29.86,8,2,46,2.83
2013-12-23,51,43,31,51,42,30,98,96,85,30.08,29.92,3,0,11,0.20
2013-12-24,31,25,19,30,19,12,96,77,59,30.38,30.07,3,0,13,0.00
2013-12-25,33,26,20,21,14,-4,87,61,25,30.46,30.35,5,0,7,0.00
2013-12-26,42,33,27,24,18,13,70,55,39,30.36,30.27,4,0,12,0.00
2013-12-27,46,34,27,26,22,12,82,63,38,30.43,30.32,2,0,7,0.00
2013-12-28,47,39,32,37,23,3,95,57,19,30.41,30.02,4,0,6,0.40
2013-12-29,46,40,33,43,38,25,97,91,67,30.01,29.77,6,1,19,1.25
2013-12-30,41,36,32,35,31,26,93,85,71,30.09,29.90,5,1,21,0.00
2013-12-31,36,30,27,26,19,13,82,63,42,30.36,30.07,5,1,15,0.00
2014-1-1,37,32,28,31,22,13,87,65,47,30.36,30.12,4,0,8,0.00
2014-1-2,42,34,10,41,32,8,96,93,85,30.13,29.61,26,2,34,0.21